createdAt,value
2017-06-11T00:01:03.059Z,57.55
2017-06-11T00:02:13.340Z,57.17
2017-06-11T00:03:23.638Z,57.84
2017-06-11T00:04:33.907Z,57.84
2017-06-11T00:05:44.204Z,57.93
2017-06-11T00:06:54.180Z,57.65
2017-06-11T00:08:04.481Z,57.93
2017-06-11T00:09:14.790Z,57.45
2017-06-11T00:10:25.074Z,57.65
2017-06-11T00:11:35.354Z,57.43
2017-06-11T00:12:45.653Z,57.45
2017-06-11T00:13:55.635Z,57.33
2017-06-11T00:15:05.923Z,57.93
2017-06-11T00:16:16.215Z,57.14
2017-06-11T00:17:26.207Z,57.26
2017-06-11T00:18:36.562Z,57.81
2017-06-11T00:19:46.860Z,57.93
2017-06-11T00:20:56.849Z,57.36
2017-06-11T00:22:07.140Z,57.81
2017-06-11T00:23:17.447Z,57.33
2017-06-11T00:24:27.738Z,57.52
2017-06-11T00:25:37.731Z,57.81
2017-06-11T00:26:48.065Z,57.23
2017-06-11T00:27:58.048Z,57.43
2017-06-11T00:29:08.337Z,57.55
2017-06-11T00:30:18.627Z,57.43
2017-06-11T00:31:28.907Z,57.52
2017-06-11T00:32:39.182Z,57.43
2017-06-11T00:33:49.179Z,57.62
2017-06-11T00:34:59.456Z,57.71
2017-06-11T00:36:09.731Z,57.43
2017-06-11T00:37:19.732Z,57.43
2017-06-11T00:38:29.707Z,57.23
2017-06-11T00:39:39.990Z,57.52
2017-06-11T00:40:50.282Z,57.62
2017-06-11T00:42:00.580Z,57.52
2017-06-11T00:43:10.861Z,57.71
2017-06-11T00:44:21.142Z,57.81
2017-06-11T00:45:31.378Z,57.71
2017-06-11T00:46:41.663Z,57.62
2017-06-11T00:47:52.022Z,57.52
2017-06-11T00:49:01.980Z,57.62
2017-06-11T00:50:11.654Z,57.52
2017-06-11T00:51:21.945Z,57.52
2017-06-11T00:52:32.221Z,57.43
2017-06-11T00:53:42.508Z,57.43
2017-06-11T00:54:52.810Z,57.62
2017-06-11T00:56:03.090Z,58
2017-06-11T00:57:13.372Z,57.9
2017-06-11T00:58:23.355Z,57.81
2017-06-11T00:59:33.687Z,57.81
2017-06-11T01:00:43.658Z,57.14
2017-06-11T01:01:53.335Z,57.23
2017-06-11T01:03:03.612Z,57.62
2017-06-11T01:04:13.905Z,57.9
2017-06-11T01:05:24.251Z,57.81
2017-06-11T01:06:34.224Z,57.9
2017-06-11T01:07:44.503Z,57.62
2017-06-11T01:08:54.582Z,58
2017-06-11T01:10:04.877Z,57.88
2017-06-11T01:11:15.162Z,57.43
2017-06-11T01:12:25.445Z,57.4
2017-06-11T01:13:35.421Z,57.81
2017-06-11T01:14:45.714Z,57.5
2017-06-11T01:15:56.002Z,57.62
2017-06-11T01:17:06.024Z,57.62
2017-06-11T01:18:16.316Z,57.78
2017-06-11T01:19:25.986Z,57.97
2017-06-11T01:20:36.324Z,57.97
2017-06-11T01:21:46.290Z,57.78
2017-06-11T01:22:56.592Z,57.88
2017-06-11T01:24:06.891Z,57.5
2017-06-11T01:25:17.180Z,57.4
2017-06-11T01:26:26.853Z,57.78
2017-06-11T01:27:37.141Z,57.88
2017-06-11T01:28:47.432Z,57.68
2017-06-11T01:29:57.716Z,57.97
2017-06-11T01:31:07.998Z,57.68
2017-06-11T01:32:18.272Z,57.59
2017-06-11T01:33:28.577Z,57.68
2017-06-11T01:34:38.561Z,57.68
2017-06-11T01:35:48.551Z,57.88
2017-06-11T01:36:58.843Z,57.88
2017-06-11T01:38:08.827Z,57.88
2017-06-11T01:39:19.116Z,57.5
2017-06-11T01:40:29.459Z,57.68
2017-06-11T01:41:39.446Z,57.4
2017-06-11T01:42:49.719Z,57.21
2017-06-11T01:43:59.697Z,57.11
2017-06-11T01:45:09.987Z,57.21
2017-06-11T01:46:19.961Z,57.21
2017-06-11T01:47:30.246Z,57.4
2017-06-11T01:48:40.527Z,57.3
2017-06-11T01:49:50.807Z,57.11
2017-06-11T01:51:01.083Z,57.85
2017-06-11T01:52:11.371Z,57.3
2017-06-11T01:53:21.663Z,57.37
2017-06-11T01:54:31.944Z,57.08
2017-06-11T01:55:41.642Z,57.08
2017-06-11T01:56:51.930Z,57.18
2017-06-11T01:58:02.011Z,57.11
2017-06-11T01:59:12.295Z,57.37
2017-06-11T02:00:22.577Z,57.56
2017-06-11T02:01:32.560Z,57.68
2017-06-11T02:02:42.854Z,57.59
2017-06-11T02:03:53.186Z,57.59
2017-06-11T02:05:03.163Z,57.5
2017-06-11T02:06:13.443Z,57.68
2017-06-11T02:07:23.734Z,57.4
2017-06-11T02:08:34.021Z,57.78
2017-06-11T02:09:44.304Z,57.4
2017-06-11T02:10:54.590Z,57.88
2017-06-11T02:12:04.886Z,57.65
2017-06-11T02:13:15.203Z,57.88
2017-06-11T02:14:25.490Z,57.65
2017-06-11T02:15:35.173Z,57.56
2017-06-11T02:16:45.452Z,57.65
2017-06-11T02:17:55.730Z,57.75
2017-06-11T02:19:06.018Z,57.85
2017-06-11T02:20:16.314Z,57.78
2017-06-11T02:21:26.601Z,57.5
2017-06-11T02:22:36.886Z,57.95
2017-06-11T02:23:46.860Z,57.46
2017-06-11T02:24:57.135Z,57.37
2017-06-11T02:26:07.436Z,57.95
2017-06-11T02:27:17.809Z,57.46
2017-06-11T02:28:28.088Z,57.46
2017-06-11T02:29:38.068Z,57.46
2017-06-11T02:30:48.344Z,57.85
2017-06-11T02:31:58.028Z,57.56
2017-06-11T02:33:08.060Z,57.46
2017-06-11T02:34:18.033Z,57.56
2017-06-11T02:35:28.302Z,57.46
2017-06-11T02:36:37.971Z,57.37
2017-06-11T02:37:48.264Z,57.46
2017-06-11T02:38:58.235Z,57.46
2017-06-11T02:40:08.210Z,57.56
2017-06-11T02:41:18.503Z,57.75
2017-06-11T02:42:28.795Z,57.65
2017-06-11T02:43:39.084Z,57.65
2017-06-11T02:44:49.365Z,57.56
2017-06-11T02:45:59.391Z,57.65
2017-06-11T02:47:09.739Z,57.65
2017-06-11T02:48:20.092Z,57.56
2017-06-11T02:49:30.137Z,57.85
2017-06-11T02:50:40.205Z,57.65
2017-06-11T02:51:50.562Z,57.65
2017-06-11T02:53:00.278Z,57.75
2017-06-11T02:54:10.621Z,57.85
2017-06-11T02:55:20.962Z,57.46
2017-06-11T02:56:31.353Z,57.37
2017-06-11T02:57:41.383Z,57.85
2017-06-11T02:58:51.425Z,57.85
2017-06-11T03:00:01.777Z,57.85
2017-06-11T03:01:12.129Z,57.65
2017-06-11T03:32:52.004Z,55.19
2017-06-11T03:34:02.339Z,55.47
2017-06-11T03:35:12.681Z,56.24
2017-06-11T03:36:23.015Z,56.82
2017-06-11T03:37:33.356Z,57.42
2017-06-11T03:38:43.704Z,57.32
2017-06-11T03:39:54.106Z,57.42
2017-06-11T03:41:04.452Z,57.8
2017-06-11T03:42:14.817Z,57.92
2017-06-11T03:43:25.160Z,57.92
2017-06-11T03:44:35.546Z,58.15
2017-06-11T03:45:45.917Z,58.15
2017-06-11T03:46:55.951Z,58.15
2017-06-11T03:48:05.974Z,57.76
2017-06-11T03:49:15.698Z,57.89
2017-06-11T03:50:26.099Z,57.79
2017-06-11T03:51:36.437Z,57.53
2017-06-11T03:52:46.792Z,57.82
2017-06-11T03:53:57.157Z,57.56
2017-06-11T03:55:07.227Z,57.75
2017-06-11T03:56:17.625Z,57.95
2017-06-11T03:57:27.966Z,57.56
2017-06-11T03:58:38.317Z,57.46
2017-06-11T03:59:48.342Z,57.37
2017-06-11T04:00:58.365Z,57.78
2017-06-11T04:02:08.449Z,57.59
2017-06-11T04:03:18.483Z,57.5
2017-06-11T04:04:28.847Z,57.5
2017-06-11T04:05:39.196Z,57.4
2017-06-11T04:06:49.552Z,57.81
2017-06-11T04:07:59.893Z,57.62
2017-06-11T04:09:10.243Z,57.9
2017-06-11T04:10:20.586Z,57.04
2017-06-11T04:11:30.933Z,57.04
2017-06-11T04:12:40.966Z,56.98
2017-06-11T04:13:51.308Z,57.26
2017-06-11T04:15:01.678Z,57.26
2017-06-11T04:16:12.026Z,57.07
2017-06-11T04:17:22.386Z,57.1
2017-06-11T04:18:32.429Z,55.01
2017-06-11T04:19:42.874Z,52.23
2017-06-11T04:20:53.231Z,50.71
2017-06-11T04:22:03.587Z,49.85
2017-06-11T04:23:13.634Z,49.82
2017-06-11T04:24:23.981Z,49.41
2017-06-11T04:25:34.402Z,49.78
2017-06-11T04:26:44.766Z,49.63
2017-06-11T04:27:55.168Z,49.66
2017-06-11T04:29:05.516Z,49.8
2017-06-11T04:30:15.881Z,49.83
2017-06-11T04:31:25.978Z,49.68
2017-06-11T04:32:36.022Z,49.9
2017-06-11T04:33:46.064Z,49.92
2017-06-11T04:34:56.431Z,50.24
2017-06-11T04:36:06.764Z,49.97
2017-06-11T04:37:17.191Z,50.29
2017-06-11T04:38:27.222Z,50.22
2017-06-11T04:39:37.255Z,50.42
2017-06-11T04:40:47.302Z,50.44
2017-06-11T04:41:57.346Z,50.56
2017-06-11T04:43:07.704Z,50.49
2017-06-11T04:44:18.051Z,50.59
2017-06-11T04:45:28.100Z,50.32
2017-06-11T04:46:38.150Z,50.71
2017-06-11T04:47:48.205Z,50.81
2017-06-11T04:48:58.602Z,50.73
2017-06-11T04:50:08.951Z,50.54
2017-06-11T04:51:19.316Z,50.54
2017-06-11T04:52:29.678Z,50.56
2017-06-11T04:53:40.043Z,50.66
2017-06-11T04:54:50.404Z,50.46
2017-06-11T04:56:00.765Z,50.56
2017-06-11T04:57:11.120Z,50.46
2017-06-11T04:58:21.494Z,50.37
2017-06-11T04:59:31.545Z,50.95
2017-06-11T05:00:41.592Z,50.85
2017-06-11T05:01:51.932Z,50.85
2017-06-11T05:03:02.286Z,50.68
2017-06-11T05:04:12.628Z,50.59
2017-06-11T05:05:22.963Z,50.88
2017-06-11T05:06:32.695Z,50.68
2017-06-11T05:07:43.083Z,50.68
2017-06-11T05:08:53.447Z,50.95
2017-06-11T05:10:03.483Z,51.05
2017-06-11T05:11:13.827Z,51.15
2017-06-11T05:12:23.565Z,51.25
2017-06-11T05:13:33.945Z,51.32
2017-06-11T05:14:44.312Z,51.22
2017-06-11T05:15:54.663Z,51.52
2017-06-11T05:17:05.010Z,51.52
2017-06-11T05:18:15.413Z,51.42
2017-06-11T05:19:25.485Z,51.52
2017-06-11T05:20:35.530Z,51.62
2017-06-11T05:21:45.876Z,51.12
2017-06-11T05:22:55.909Z,51.32
2017-06-11T05:24:06.012Z,51.03
2017-06-11T05:25:16.369Z,51.22
2017-06-11T05:26:26.721Z,51.12
2017-06-11T05:27:37.078Z,51.32
2017-06-11T05:28:47.434Z,51.15
2017-06-11T05:29:57.831Z,51.34
2017-06-11T05:31:08.236Z,51.25
2017-06-11T05:32:17.960Z,51.45
2017-06-11T05:33:28.308Z,51.15
2017-06-11T05:34:38.353Z,51.17
2017-06-11T05:35:48.796Z,51.37
2017-06-11T05:36:59.153Z,51.07
2017-06-11T05:38:09.197Z,50.78
2017-06-11T05:39:19.605Z,51.07
2017-06-11T05:40:29.965Z,50.95
2017-06-11T05:41:40.363Z,51.15
2017-06-11T05:42:50.724Z,51.05
2017-06-11T05:44:00.781Z,51.12
2017-06-11T05:45:10.826Z,51.12
2017-06-11T05:46:21.184Z,51.12
2017-06-11T05:47:31.588Z,50.73
2017-06-11T05:48:41.954Z,51.15
2017-06-11T05:49:52.302Z,51.22
2017-06-11T05:51:02.675Z,51.22
2017-06-11T05:52:13.038Z,51.22
2017-06-11T05:53:23.443Z,51.32
2017-06-11T05:54:33.475Z,51.1
2017-06-11T05:55:43.854Z,51.39
2017-06-11T05:56:53.902Z,51.29
2017-06-11T05:58:04.266Z,51.76
2017-06-11T05:59:13.992Z,52.25
2017-06-11T06:00:24.342Z,52.03
2017-06-11T06:01:34.393Z,52
2017-06-11T06:02:44.462Z,52.5
2017-06-11T06:03:54.520Z,52.59
2017-06-11T06:05:04.555Z,52.86
2017-06-11T06:06:14.915Z,52.56
2017-06-11T06:07:24.629Z,53.45
2017-06-11T06:08:34.665Z,53.42
2017-06-11T06:09:44.719Z,53.33
2017-06-11T06:10:55.129Z,53.33
2017-06-11T06:12:05.491Z,53.42
2017-06-11T06:13:15.857Z,53.39
2017-06-11T06:14:26.205Z,53.3
2017-06-11T06:15:36.249Z,53
2017-06-11T06:16:46.656Z,52.81
2017-06-11T06:17:56.702Z,52.88
2017-06-11T06:19:07.100Z,53.47
2017-06-11T06:20:17.165Z,52.98
2017-06-11T06:21:27.539Z,53.56
2017-06-11T06:22:37.625Z,53.34
2017-06-11T06:23:47.663Z,53.74
2017-06-11T06:24:58.014Z,53.71
2017-06-11T06:26:08.090Z,53.81
2017-06-11T06:27:18.128Z,53.68
2017-06-11T06:28:28.497Z,53.58
2017-06-11T06:29:38.846Z,53.88
2017-06-11T06:30:48.896Z,53.95
2017-06-11T06:31:59.269Z,54.24
2017-06-11T06:33:09.302Z,54.63
2017-06-11T06:34:19.654Z,54.24
2017-06-11T06:35:29.395Z,54.63
2017-06-11T06:36:39.438Z,54.44
2017-06-11T06:37:49.816Z,54.5
2017-06-11T06:39:00.175Z,54.5
2017-06-11T06:40:10.541Z,54.48
2017-06-11T06:41:20.887Z,54.68
2017-06-11T06:42:31.235Z,54.38
2017-06-11T06:43:41.604Z,54.46
2017-06-11T06:44:51.660Z,54.75
2017-06-11T06:46:01.767Z,55.04
2017-06-11T06:47:12.119Z,54.85
2017-06-11T06:48:22.471Z,55.01
2017-06-11T06:49:32.515Z,55.21
2017-06-11T06:50:42.580Z,55.21
2017-06-11T06:51:52.934Z,55.5
2017-06-11T06:53:02.957Z,55.27
2017-06-11T06:54:13.313Z,55.76
2017-06-11T06:55:23.669Z,55.66
2017-06-11T06:56:34.042Z,55.37
2017-06-11T06:57:44.401Z,55.76
2017-06-11T06:58:54.146Z,55.57
2017-06-11T07:00:04.508Z,56.03
2017-06-11T07:01:14.869Z,55.83
2017-06-11T07:02:25.228Z,55.64
2017-06-11T07:03:35.642Z,55.93
2017-06-11T07:04:46.000Z,55.83
2017-06-11T07:05:56.366Z,55.93
2017-06-11T07:07:06.403Z,56.12
2017-06-11T07:08:16.749Z,56.03
2017-06-11T07:09:26.793Z,56.29
2017-06-11T07:10:37.158Z,56.29
2017-06-11T07:11:47.513Z,56.2
2017-06-11T07:12:57.576Z,56.56
2017-06-11T07:14:07.909Z,56.65
2017-06-11T07:15:18.000Z,57.23
2017-06-11T07:16:28.032Z,56.43
2017-06-11T07:17:38.376Z,56.34
2017-06-11T07:18:48.429Z,56.6
2017-06-11T07:19:58.784Z,57.28
2017-06-11T07:21:08.503Z,56.7
2017-06-11T07:22:18.866Z,56.6
2017-06-11T07:23:28.913Z,56.5
2017-06-11T07:24:39.263Z,56.7
2017-06-11T07:25:49.606Z,56.01
2017-06-11T07:26:59.998Z,56.6
2017-06-11T07:28:10.370Z,56.11
2017-06-11T07:29:20.403Z,56.01
2017-06-11T07:30:30.820Z,56.5
2017-06-11T07:31:41.199Z,56.4
2017-06-11T07:32:51.597Z,56.21
2017-06-11T07:34:01.988Z,56.21
2017-06-11T07:35:12.040Z,56.4
2017-06-11T07:36:22.404Z,56.3
2017-06-11T07:37:32.765Z,56.62
2017-06-11T07:38:43.185Z,56.14
2017-06-11T07:39:53.221Z,56.24
2017-06-11T07:41:03.260Z,56.14
2017-06-11T07:42:13.621Z,56.04
2017-06-11T07:43:23.976Z,56.24
2017-06-11T07:44:34.019Z,56.34
2017-06-11T07:45:44.389Z,56.34
2017-06-11T07:46:54.763Z,56.24
2017-06-11T07:48:04.806Z,56.34
2017-06-11T07:49:14.532Z,56.24
2017-06-11T07:50:25.045Z,56.34
2017-06-11T07:51:35.420Z,56.14
2017-06-11T07:52:45.455Z,56.04
2017-06-11T07:53:55.818Z,56.16
2017-06-11T07:55:06.164Z,56.43
2017-06-11T07:56:16.519Z,56.24
2017-06-11T07:57:26.874Z,56.52
2017-06-11T07:58:37.220Z,56.24
2017-06-11T07:59:47.262Z,56.34
2017-06-11T08:00:57.290Z,56.24
2017-06-11T08:02:07.380Z,56.26
2017-06-11T08:03:17.437Z,56.07
2017-06-11T08:04:27.788Z,56.16
2017-06-11T08:05:38.159Z,56.26
2017-06-11T08:06:48.504Z,56.16
2017-06-11T08:07:58.899Z,56.26
2017-06-11T08:09:08.631Z,56.26
2017-06-11T08:10:19.003Z,56.56
2017-06-11T08:11:29.345Z,55.78
2017-06-11T08:12:39.711Z,56.1
2017-06-11T08:13:49.815Z,56.1
2017-06-11T08:14:59.861Z,56.29
2017-06-11T08:16:10.213Z,56.2
2017-06-11T08:17:20.556Z,56.1
2017-06-11T08:18:30.897Z,56.46
2017-06-11T08:19:41.302Z,56.16
2017-06-11T08:20:51.664Z,56.29
2017-06-11T08:22:02.039Z,56.56
2017-06-11T08:23:12.397Z,56.2
2017-06-11T08:24:22.125Z,55.8
2017-06-11T08:25:31.920Z,56.1
2017-06-11T08:26:42.284Z,55.8
2017-06-11T08:27:52.324Z,56.49
2017-06-11T08:29:02.678Z,55.71
2017-06-11T08:30:12.733Z,56.1
2017-06-11T08:31:23.146Z,56.03
2017-06-11T08:32:33.516Z,56.03
2017-06-11T08:33:43.885Z,56.03
2017-06-11T08:34:54.272Z,56.12
2017-06-11T08:36:04.633Z,55.74
2017-06-11T08:37:15.061Z,55.83
2017-06-11T08:38:25.421Z,56.22
2017-06-11T08:39:35.155Z,56.05
2017-06-11T08:40:45.524Z,56.25
2017-06-11T08:41:55.558Z,56.05
2017-06-11T08:43:05.965Z,56.45
2017-06-11T08:44:16.329Z,56.15
2017-06-11T08:45:26.061Z,55.76
2017-06-11T08:46:36.419Z,55.66
2017-06-11T08:47:46.477Z,55.79
2017-06-11T08:48:56.908Z,55.79
2017-06-11T08:50:07.277Z,55.79
2017-06-11T08:51:17.630Z,55.79
2017-06-11T08:52:28.017Z,55.79
2017-06-11T08:53:38.384Z,55.69
2017-06-11T08:54:48.815Z,56.09
2017-06-11T08:55:59.172Z,55.99
2017-06-11T08:57:09.520Z,55.99
2017-06-11T08:58:19.975Z,55.89
2017-06-11T08:59:30.048Z,56.27
2017-06-11T09:00:40.410Z,56.18
2017-06-11T09:01:50.781Z,56.21
2017-06-11T09:03:01.146Z,56.18
2017-06-11T09:04:11.190Z,56.18
2017-06-11T09:05:21.560Z,55.99
2017-06-11T09:06:31.955Z,56.21
2017-06-11T09:07:42.016Z,56.01
2017-06-11T09:08:52.097Z,56.11
2017-06-11T09:10:02.453Z,55.72
2017-06-11T09:11:12.504Z,55.82
2017-06-11T09:12:23.013Z,56.01
2017-06-11T09:13:33.396Z,56.01
2017-06-11T09:14:43.459Z,55.82
2017-06-11T09:15:53.512Z,55.85
2017-06-11T09:17:03.871Z,56.04
2017-06-11T09:18:14.270Z,56.23
2017-06-11T09:19:24.343Z,56.3
2017-06-11T09:20:34.406Z,56.23
2017-06-11T09:21:44.751Z,56.14
2017-06-11T09:22:55.102Z,55.85
2017-06-11T09:24:05.506Z,55.36
2017-06-11T09:25:15.557Z,55.87
2017-06-11T09:26:25.911Z,55.48
2017-06-11T09:27:36.278Z,55.8
2017-06-11T09:28:46.641Z,55.41
2017-06-11T09:29:57.305Z,55.32
2017-06-11T09:31:07.340Z,55.8
2017-06-11T09:32:17.701Z,55.51
2017-06-11T09:33:28.105Z,55.71
2017-06-11T09:34:38.475Z,56
2017-06-11T09:35:48.884Z,56
2017-06-11T09:36:58.939Z,55.32
2017-06-11T09:38:08.982Z,55.71
2017-06-11T09:39:19.344Z,55.61
2017-06-11T09:40:29.392Z,55.51
2017-06-11T09:41:39.751Z,55.51
2017-06-11T09:42:50.138Z,55.8
2017-06-11T09:44:00.475Z,55.9
2017-06-11T09:45:10.828Z,55.68
2017-06-11T09:46:21.205Z,55.8
2017-06-11T09:47:31.615Z,55.8
2017-06-11T09:48:41.660Z,55.44
2017-06-11T09:49:51.708Z,55.63
2017-06-11T09:51:01.756Z,56.38
2017-06-11T09:52:11.802Z,56.85
2017-06-11T09:53:21.898Z,56.56
2017-06-11T09:54:32.258Z,57.24
2017-06-11T09:55:42.317Z,56.43
2017-06-11T09:56:52.344Z,55.94
2017-06-11T09:58:02.710Z,55.71
2017-06-11T09:59:13.129Z,55.8
2017-06-11T10:00:23.180Z,55.15
2017-06-11T10:01:33.222Z,54.85
2017-06-11T10:02:43.590Z,54.88
2017-06-11T10:03:53.950Z,54.49
2017-06-11T10:05:03.743Z,54.79
2017-06-11T10:06:13.475Z,54.52
2017-06-11T10:07:23.838Z,54.61
2017-06-11T10:08:33.887Z,54.83
2017-06-11T10:09:44.255Z,54.54
2017-06-11T10:11:09.253Z,54.54
2017-06-11T10:12:19.608Z,53.86
2017-06-11T10:13:29.964Z,54.08
2017-06-11T10:14:40.012Z,54.21
2017-06-11T10:15:50.373Z,54.11
2017-06-11T10:17:00.731Z,54.03
2017-06-11T10:18:11.115Z,54.62
2017-06-11T10:19:21.167Z,55.96
2017-06-11T10:20:31.220Z,56.3
2017-06-11T10:21:41.626Z,57.15
2017-06-11T10:22:52.029Z,56.61
2017-06-11T10:24:02.385Z,55.76
2017-06-11T10:25:12.760Z,55.86
2017-06-11T10:26:23.128Z,55.59
2017-06-11T10:27:33.497Z,55.69
2017-06-11T10:28:43.853Z,55.2
2017-06-11T10:29:53.585Z,55.2
2017-06-11T10:31:03.347Z,54.93
2017-06-11T10:32:13.718Z,54.93
2017-06-11T10:33:24.076Z,54.93
2017-06-11T10:34:34.427Z,54.67
2017-06-11T10:35:44.789Z,54.47
2017-06-11T10:36:55.175Z,54.67
2017-06-11T10:38:05.531Z,54.57
2017-06-11T10:39:15.597Z,54.96
2017-06-11T10:40:25.996Z,54.96
2017-06-11T10:41:36.369Z,54.86
2017-06-11T10:42:46.725Z,54.96
2017-06-11T10:43:56.786Z,54.47
2017-06-11T10:45:06.527Z,54.89
2017-06-11T10:46:16.932Z,54.99
2017-06-11T10:47:27.330Z,54.79
2017-06-11T10:48:37.387Z,54.89
2017-06-11T10:49:47.446Z,55.47
2017-06-11T10:50:57.810Z,55.45
2017-06-11T10:52:08.217Z,55.65
2017-06-11T10:53:18.255Z,55.65
2017-06-11T10:54:28.609Z,55.62
2017-06-11T10:55:39.013Z,55.91
2017-06-11T10:56:49.072Z,55.81
2017-06-11T10:57:59.504Z,55.62
2017-06-11T10:59:09.899Z,55.71
2017-06-11T11:00:20.268Z,55.81
2017-06-11T11:01:30.636Z,55.81
2017-06-11T11:02:40.994Z,55.71
2017-06-11T11:03:51.408Z,55.71
2017-06-11T11:05:01.476Z,55.91
2017-06-11T11:06:11.839Z,55.81
2017-06-11T11:07:22.200Z,55.84
2017-06-11T11:08:32.559Z,55.55
2017-06-11T11:09:42.299Z,55.65
2017-06-11T11:10:52.356Z,55.94
2017-06-11T11:12:02.730Z,55.71
2017-06-11T11:13:12.485Z,55.71
2017-06-11T11:14:22.527Z,55.71
2017-06-11T11:15:32.941Z,55.81
2017-06-11T11:16:43.301Z,55.81
2017-06-11T11:17:53.675Z,55.55
2017-06-11T11:19:03.734Z,55.62
2017-06-11T11:20:14.100Z,55.62
2017-06-11T11:21:24.505Z,55.62
2017-06-11T11:22:34.552Z,55.84
2017-06-11T11:23:44.921Z,55.62
2017-06-11T11:24:54.608Z,55.74
2017-06-11T11:26:04.990Z,55.84
2017-06-11T11:27:15.077Z,55.94
2017-06-11T11:28:24.493Z,55.84
2017-06-11T11:29:34.846Z,55.84
2017-06-11T11:30:44.888Z,55.16
2017-06-11T11:31:55.248Z,55.26
2017-06-11T11:33:05.354Z,55.26
2017-06-11T11:34:15.436Z,55.26
2017-06-11T11:35:25.802Z,55.08
2017-06-11T11:36:35.569Z,55.26
2017-06-11T11:37:45.623Z,54.89
2017-06-11T11:38:55.407Z,55.47
2017-06-11T11:40:05.762Z,55.77
2017-06-11T11:41:16.129Z,55.74
2017-06-11T11:42:26.163Z,55.74
2017-06-11T11:43:36.575Z,55.84
2017-06-11T11:44:46.668Z,55.84
2017-06-11T11:45:57.040Z,55.94
2017-06-11T11:47:07.114Z,55.91
2017-06-11T11:48:17.470Z,56.13
2017-06-11T11:49:27.822Z,55.91
2017-06-11T11:50:38.224Z,55.94
2017-06-11T11:51:48.257Z,55.81
2017-06-11T11:52:58.609Z,55.91
2017-06-11T11:54:08.647Z,55.81
2017-06-11T11:55:19.018Z,56.13
2017-06-11T11:56:29.055Z,55.74
2017-06-11T11:57:39.116Z,55.55
2017-06-11T11:58:49.172Z,55.65
2017-06-11T11:59:59.534Z,55.84
2017-06-11T12:01:09.571Z,55.87
2017-06-11T12:02:19.981Z,55.96
2017-06-11T12:03:30.326Z,55.77
2017-06-11T12:04:40.680Z,55.87
2017-06-11T12:05:51.047Z,55.77
2017-06-11T12:07:01.401Z,55.77
2017-06-11T12:08:11.483Z,55.96
2017-06-11T12:09:21.530Z,55.77
2017-06-11T12:10:31.563Z,55.96
2017-06-11T12:11:41.981Z,55.96
2017-06-11T12:12:52.349Z,56.16
2017-06-11T12:14:02.445Z,55.96
2017-06-11T12:15:12.487Z,55.87
2017-06-11T12:16:22.524Z,55.96
2017-06-11T12:17:32.572Z,55.96
2017-06-11T12:18:42.606Z,56.06
2017-06-11T12:19:53.027Z,55.96
2017-06-11T12:21:03.087Z,55.96
2017-06-11T12:22:13.438Z,55.57
2017-06-11T12:23:23.807Z,55.77
2017-06-11T12:24:34.164Z,55.67
2017-06-11T12:25:44.201Z,55.57
2017-06-11T12:26:54.575Z,55.77
2017-06-11T12:28:04.613Z,55.65
2017-06-11T12:29:14.975Z,55.96
2017-06-11T12:30:25.329Z,56.16
2017-06-11T12:31:35.755Z,55.96
2017-06-11T12:32:46.137Z,55.65
2017-06-11T12:33:55.852Z,55.94
2017-06-11T12:35:06.219Z,55.94
2017-06-11T12:36:16.590Z,55.94
2017-06-11T12:37:27.004Z,55.94
2017-06-11T12:38:37.055Z,55.94
2017-06-11T12:39:47.436Z,55.84
2017-06-11T12:40:57.798Z,55.67
2017-06-11T12:42:08.160Z,55.87
2017-06-11T12:43:18.575Z,56.13
2017-06-11T12:44:28.922Z,55.94
2017-06-11T12:45:39.340Z,56.13
2017-06-11T12:46:49.770Z,55.84
2017-06-11T12:48:00.122Z,55.55
2017-06-11T12:49:10.543Z,55.65
2017-06-11T12:50:20.900Z,55.84
2017-06-11T12:51:31.273Z,55.84
2017-06-11T12:52:41.621Z,55.94
2017-06-11T12:53:51.982Z,55.74
2017-06-11T12:55:02.083Z,55.74
2017-06-11T12:56:12.446Z,55.35
2017-06-11T12:57:22.813Z,55.87
2017-06-11T12:58:33.180Z,55.47
2017-06-11T12:59:43.535Z,55.57
2017-06-11T13:00:53.562Z,55.55
2017-06-11T13:02:03.641Z,55.67
2017-06-11T13:03:14.016Z,55.77
2017-06-11T13:04:24.379Z,55.77
2017-06-11T13:05:34.764Z,55.77
2017-06-11T13:06:45.179Z,55.99
2017-06-11T13:07:55.217Z,55.99
2017-06-11T13:09:05.579Z,55.96
2017-06-11T13:10:15.314Z,55.8
2017-06-11T13:11:25.718Z,55.99
2017-06-11T13:12:36.135Z,55.8
2017-06-11T13:13:46.509Z,55.99
2017-06-11T13:14:56.556Z,55.8
2017-06-11T13:16:06.602Z,55.8
2017-06-11T13:17:16.977Z,55.8
2017-06-11T13:18:27.014Z,55.9
2017-06-11T13:19:37.371Z,55.9
2017-06-11T13:20:47.411Z,55.9
2017-06-11T13:21:57.769Z,55.99
2017-06-11T13:23:08.137Z,55.99
2017-06-11T13:24:18.225Z,56.02
2017-06-11T13:25:28.251Z,56.02
2017-06-11T13:26:38.607Z,55.92
2017-06-11T13:27:48.999Z,55.82
2017-06-11T13:28:59.403Z,55.92
2017-06-11T13:30:09.470Z,55.82
2017-06-11T13:31:19.533Z,55.82
2017-06-11T13:32:29.894Z,55.82
2017-06-11T13:33:40.259Z,55.82
2017-06-11T13:34:50.622Z,55.82
2017-06-11T13:36:01.019Z,55.82
2017-06-11T13:37:11.380Z,55.73
2017-06-11T13:38:21.736Z,55.92
2017-06-11T13:39:31.487Z,55.92
2017-06-11T13:40:41.851Z,56.02
2017-06-11T13:41:51.921Z,55.82
2017-06-11T13:43:02.278Z,56.02
2017-06-11T13:44:12.657Z,55.82
2017-06-11T13:45:23.039Z,55.7
2017-06-11T13:46:33.103Z,55.99
2017-06-11T13:47:43.521Z,55.99
2017-06-11T13:48:53.890Z,55.99
2017-06-11T13:50:04.280Z,55.7
2017-06-11T13:51:14.679Z,55.9
2017-06-11T13:52:25.081Z,55.8
2017-06-11T13:53:35.502Z,55.82
2017-06-11T13:54:45.888Z,55.9
2017-06-11T13:55:55.961Z,55.73
2017-06-11T13:57:06.041Z,55.82
2017-06-11T13:58:16.415Z,55.92
2017-06-11T13:59:26.854Z,56.02
2017-06-11T14:00:37.231Z,55.82
2017-06-11T14:01:47.278Z,55.63
2017-06-11T14:02:57.652Z,56.21
2017-06-11T14:04:08.038Z,56.19
2017-06-11T14:05:18.148Z,56.19
2017-06-11T14:06:28.221Z,55.9
2017-06-11T14:07:38.615Z,55.9
2017-06-11T14:08:49.011Z,56.02
2017-06-11T14:09:59.070Z,55.73
2017-06-11T14:11:09.499Z,55.92
2017-06-11T14:12:19.859Z,55.92
2017-06-11T14:13:30.210Z,55.82
2017-06-11T14:14:40.629Z,55.92
2017-06-11T14:15:51.011Z,55.92
2017-06-11T14:17:01.393Z,55.82
2017-06-11T14:18:11.767Z,55.73
2017-06-11T14:19:21.827Z,55.82
2017-06-11T14:20:31.868Z,55.99
2017-06-11T14:21:42.243Z,56.09
2017-06-11T14:22:52.630Z,55.9
2017-06-11T14:24:02.681Z,56.19
2017-06-11T14:25:13.047Z,56.68
2017-06-11T14:26:23.095Z,56.26
2017-06-11T14:27:33.475Z,56.46
2017-06-11T14:28:43.836Z,56.82
2017-06-11T14:29:54.204Z,57.01
2017-06-11T14:31:04.576Z,56.62
2017-06-11T14:32:14.940Z,56.72
2017-06-11T14:33:25.326Z,56.52
2017-06-11T14:34:35.681Z,56.4
2017-06-11T14:35:46.049Z,56.79
2017-06-11T14:36:56.490Z,56.23
2017-06-11T14:38:06.888Z,56.7
2017-06-11T14:39:17.265Z,56.2
2017-06-11T14:40:27.312Z,56.2
2017-06-11T14:41:37.392Z,56.6
2017-06-11T14:42:47.166Z,55.94
2017-06-11T14:43:57.204Z,55.84
2017-06-11T14:45:07.566Z,56.04
2017-06-11T14:46:18.027Z,56.04
2017-06-11T14:47:28.395Z,56.04
2017-06-11T14:48:38.441Z,56.04
2017-06-11T14:49:48.491Z,56.33
2017-06-11T14:50:58.857Z,57.01
2017-06-11T14:52:08.720Z,56.6
2017-06-11T14:53:19.063Z,56.67
2017-06-11T14:54:29.116Z,56.67
2017-06-11T14:55:39.479Z,56.47
2017-06-11T14:56:49.526Z,56.3
2017-06-11T14:57:59.943Z,56.1
2017-06-11T14:59:10.012Z,56.1
2017-06-11T15:00:20.360Z,56.01
2017-06-11T15:01:30.721Z,55.65
2017-06-11T15:02:41.090Z,55.94
2017-06-11T15:03:51.503Z,55.55
2017-06-11T15:05:01.853Z,56.13
2017-06-11T15:06:12.208Z,56.16
2017-06-11T15:07:22.565Z,55.96
2017-06-11T15:08:32.921Z,55.87
2017-06-11T15:09:43.348Z,55.87
2017-06-11T15:10:53.769Z,55.87
2017-06-11T15:12:04.133Z,55.96
2017-06-11T15:13:13.864Z,55.8
2017-06-11T15:14:23.925Z,55.99
2017-06-11T15:15:34.337Z,55.96
2017-06-11T15:16:44.729Z,55.67
2017-06-11T15:17:55.102Z,55.57
2017-06-11T15:19:05.149Z,56.26
2017-06-11T15:20:15.508Z,56.06
2017-06-11T15:21:25.893Z,56.06
2017-06-11T15:22:35.943Z,56.36
2017-06-11T15:23:46.310Z,56.16
2017-06-11T15:24:56.672Z,56.06
2017-06-11T15:26:07.038Z,56.52
2017-06-11T15:27:17.713Z,56.43
2017-06-11T15:28:28.060Z,56.33
2017-06-11T15:29:38.124Z,56.33
2017-06-11T15:30:48.507Z,56.33
2017-06-11T15:31:58.872Z,56.43
2017-06-11T15:33:09.286Z,56.23
2017-06-11T15:34:19.663Z,56.52
2017-06-11T15:35:30.055Z,56.23
2017-06-11T15:36:40.422Z,56.52
2017-06-11T15:37:50.800Z,56.43
2017-06-11T15:39:00.900Z,56.72
2017-06-11T15:40:11.265Z,56.1